createdAt,value
2017-09-04T00:00:40.337Z,11.90
2017-09-04T00:03:07.893Z,11.90
2017-09-04T00:05:35.550Z,11.90
2017-09-04T00:08:03.514Z,11.80
2017-09-04T00:10:31.067Z,11.80
2017-09-04T00:12:58.617Z,11.80
2017-09-04T00:15:27.398Z,11.70
2017-09-04T00:17:55.005Z,11.70
2017-09-04T00:20:22.554Z,11.70
2017-09-04T00:22:50.514Z,11.70
2017-09-04T00:25:18.064Z,11.60
2017-09-04T00:27:45.601Z,11.60
2017-09-04T00:30:13.193Z,11.60
2017-09-04T00:32:40.846Z,11.50
2017-09-04T00:35:08.442Z,11.50
2017-09-04T00:37:36.039Z,11.50
2017-09-04T00:40:03.621Z,11.40
2017-09-04T00:42:31.204Z,11.40
2017-09-04T00:44:58.799Z,11.40
2017-09-04T00:47:26.342Z,11.40
2017-09-04T00:49:54.363Z,11.40
2017-09-04T00:52:21.921Z,11.40
2017-09-04T00:54:49.476Z,11.40
2017-09-04T00:57:17.215Z,11.30
2017-09-04T00:59:45.001Z,11.30
2017-09-04T01:02:12.550Z,11.30
2017-09-04T01:04:40.295Z,11.20
2017-09-04T01:07:07.837Z,11.20
2017-09-04T01:09:35.390Z,11.20
2017-09-04T01:12:03.426Z,11.20
2017-09-04T01:14:30.978Z,11.20
2017-09-04T01:16:58.521Z,11.10
2017-09-04T01:19:26.161Z,11.10
2017-09-04T01:21:53.747Z,11.10
2017-09-04T01:24:21.301Z,11.10
2017-09-04T01:26:49.033Z,11.10
2017-09-04T01:29:16.591Z,11.00
2017-09-04T01:31:44.280Z,11.00
2017-09-04T01:34:11.824Z,11.00
2017-09-04T01:36:39.373Z,11.00
2017-09-04T01:39:06.969Z,11.00
2017-09-04T01:41:34.515Z,11.00
2017-09-04T01:44:02.077Z,11.00
2017-09-04T01:46:29.954Z,10.90
2017-09-04T01:48:57.509Z,10.90
2017-09-04T01:51:25.068Z,10.90
2017-09-04T01:53:52.730Z,10.90
2017-09-04T01:56:20.318Z,10.90
2017-09-04T01:58:47.906Z,10.90
2017-09-04T02:01:16.310Z,10.80
2017-09-04T02:03:43.862Z,10.90
2017-09-04T02:06:11.415Z,10.80
2017-09-04T02:08:38.995Z,10.80
2017-09-04T02:11:06.534Z,10.80
2017-09-04T02:13:34.095Z,10.80
2017-09-04T02:16:02.153Z,10.80
2017-09-04T02:18:29.699Z,10.70
2017-09-04T02:20:57.245Z,10.70
2017-09-04T02:23:24.837Z,10.70
2017-09-04T02:25:52.790Z,10.70
2017-09-04T02:28:20.348Z,10.70
2017-09-04T02:30:47.894Z,10.70
2017-09-04T02:33:15.749Z,10.70
2017-09-04T02:35:43.333Z,10.60
2017-09-04T02:38:10.880Z,10.70
2017-09-04T02:40:38.479Z,10.60
2017-09-04T02:43:06.073Z,10.60
2017-09-04T02:45:33.629Z,10.60
2017-09-04T02:48:01.382Z,10.60
2017-09-04T02:50:28.929Z,10.60
2017-09-04T02:52:56.602Z,10.50
2017-09-04T02:55:24.517Z,10.50
2017-09-04T02:57:52.078Z,10.50
2017-09-04T03:00:19.626Z,10.50
2017-09-04T03:02:48.244Z,10.50
2017-09-04T03:05:15.805Z,10.50
2017-09-04T03:07:43.351Z,10.40
2017-09-04T03:10:10.993Z,10.40
2017-09-04T03:12:38.543Z,10.40
2017-09-04T03:15:06.139Z,10.40
2017-09-04T03:17:33.748Z,10.40
2017-09-04T03:20:01.865Z,10.40
2017-09-04T03:22:29.417Z,10.40
2017-09-04T03:24:56.962Z,10.40
2017-09-04T03:27:25.368Z,10.40
2017-09-04T03:29:52.911Z,10.40
2017-09-04T03:32:20.456Z,10.40
2017-09-04T03:34:48.043Z,10.40
2017-09-04T03:37:15.623Z,10.40
2017-09-04T03:39:43.181Z,10.40
2017-09-04T03:42:10.798Z,10.40
2017-09-04T03:44:38.355Z,10.40
2017-09-04T03:47:05.909Z,10.40
2017-09-04T03:49:34.530Z,10.40
2017-09-04T03:52:02.099Z,10.40
2017-09-04T03:54:29.665Z,10.30
2017-09-04T03:56:57.269Z,10.30
2017-09-04T03:59:24.869Z,10.30
2017-09-04T04:01:52.433Z,10.30
2017-09-04T04:04:25.530Z,10.30
2017-09-04T04:06:53.077Z,10.30
2017-09-04T04:09:20.718Z,10.30
2017-09-04T04:11:48.277Z,10.20
2017-09-04T04:14:16.134Z,10.20
2017-09-04T04:16:43.729Z,10.20
2017-09-04T04:19:11.271Z,10.20
2017-09-04T04:21:38.922Z,10.20
2017-09-04T04:24:06.519Z,10.20
2017-09-04T04:26:34.121Z,10.20
2017-09-04T04:29:01.678Z,10.10
2017-09-04T04:31:29.280Z,10.20
2017-09-04T04:33:56.834Z,10.10
2017-09-04T04:36:24.393Z,10.10
2017-09-04T04:38:56.906Z,10.10
2017-09-04T04:41:24.501Z,10.10
2017-09-04T04:43:52.057Z,10.10
2017-09-04T04:46:19.832Z,10.10
2017-09-04T04:48:47.391Z,10.10
2017-09-04T04:51:14.949Z,10.10
2017-09-04T04:53:42.549Z,10.10
2017-09-04T04:56:10.137Z,10.10
2017-09-04T04:58:37.726Z,10.10
2017-09-04T05:01:05.274Z,10.20
2017-09-04T05:03:33.206Z,10.20
2017-09-04T05:06:01.030Z,10.20
2017-09-04T05:08:28.586Z,10.20
2017-09-04T05:10:56.172Z,10.20
2017-09-04T05:13:23.781Z,10.20
2017-09-04T05:15:51.338Z,10.30
2017-09-04T05:18:18.895Z,10.30
2017-09-04T05:20:46.859Z,10.30
2017-09-04T05:23:14.779Z,10.40
2017-09-04T05:25:46.011Z,10.40
2017-09-04T05:28:13.562Z,10.50
2017-09-04T05:30:42.419Z,10.50
2017-09-04T05:33:09.976Z,10.60
2017-09-04T05:35:37.892Z,10.60
2017-09-04T05:38:05.447Z,10.70
2017-09-04T05:40:33.007Z,10.70
2017-09-04T05:43:00.629Z,10.80
2017-09-04T05:45:28.688Z,10.80
2017-09-04T05:47:56.317Z,10.90
2017-09-04T05:50:23.880Z,10.90
2017-09-04T05:52:51.898Z,11.00
2017-09-04T05:55:19.489Z,11.10
2017-09-04T05:57:47.817Z,11.30
2017-09-04T06:00:15.437Z,11.20
2017-09-04T06:02:42.996Z,11.30
2017-09-04T06:05:13.950Z,11.40
2017-09-04T06:07:41.527Z,11.40
2017-09-04T06:10:09.085Z,11.50
2017-09-04T06:12:36.689Z,11.50
2017-09-04T06:15:04.295Z,11.60
2017-09-04T06:17:31.832Z,11.60
2017-09-04T06:19:59.528Z,11.70
2017-09-04T06:22:27.096Z,11.80
2017-09-04T06:24:57.756Z,11.90
2017-09-04T06:27:25.311Z,12.00
2017-09-04T06:29:54.500Z,12.10
2017-09-04T06:32:22.146Z,12.20
2017-09-04T06:34:49.690Z,12.20
2017-09-04T06:37:17.934Z,12.30
2017-09-04T06:39:45.532Z,12.30
2017-09-04T06:42:13.073Z,12.40
2017-09-04T06:44:40.702Z,12.40
2017-09-04T06:47:08.312Z,12.50
2017-09-04T06:49:36.209Z,12.50
2017-09-04T06:52:03.756Z,12.60
2017-09-04T06:54:31.294Z,12.60
2017-09-04T06:56:58.898Z,12.70
2017-09-04T06:59:26.853Z,12.80
2017-09-04T07:01:54.392Z,12.80
2017-09-04T07:04:21.938Z,12.90
2017-09-04T07:06:49.525Z,13.00
2017-09-04T07:09:17.606Z,13.10
2017-09-04T07:11:45.172Z,13.30
2017-09-04T07:14:12.719Z,13.40
2017-09-04T07:16:44.174Z,13.40
2017-09-04T07:19:11.726Z,13.60
2017-09-04T07:21:39.306Z,13.60
2017-09-04T07:24:07.173Z,13.80
2017-09-04T07:26:35.177Z,13.80
2017-09-04T07:29:02.721Z,13.90
2017-09-04T07:31:30.350Z,14.00
2017-09-04T07:33:58.499Z,14.10
2017-09-04T07:36:26.149Z,14.10
2017-09-04T07:38:54.166Z,14.20
2017-09-04T07:41:21.778Z,14.20
2017-09-04T07:43:49.327Z,14.30
2017-09-04T07:46:16.926Z,14.30
2017-09-04T07:48:44.480Z,14.40
2017-09-04T07:51:12.073Z,14.40
2017-09-04T07:53:39.691Z,14.50
2017-09-04T07:56:07.254Z,14.60
2017-09-04T07:58:36.408Z,14.70
2017-09-04T08:01:03.971Z,14.80
2017-09-04T08:03:31.549Z,14.80
2017-09-04T08:05:59.577Z,14.90
2017-09-04T08:08:27.126Z,15.00
2017-09-04T08:10:54.680Z,15.10
2017-09-04T08:13:22.374Z,15.20
2017-09-04T08:15:52.542Z,15.30
2017-09-04T08:18:20.130Z,15.40
2017-09-04T08:20:48.129Z,15.50
2017-09-04T08:23:15.741Z,15.60
2017-09-04T08:25:43.298Z,15.70
2017-09-04T08:28:10.896Z,15.80
2017-09-04T08:30:38.471Z,15.90
2017-09-04T08:33:06.158Z,16.00
2017-09-04T08:35:33.715Z,16.10
2017-09-04T08:38:01.297Z,16.20
2017-09-04T08:40:28.845Z,16.30
2017-09-04T08:42:56.521Z,16.50
2017-09-04T08:45:24.058Z,16.60
2017-09-04T08:47:51.623Z,16.70
2017-09-04T08:50:20.942Z,16.80
2017-09-04T08:52:48.487Z,17.00
2017-09-04T08:55:16.024Z,17.00
2017-09-04T08:57:43.682Z,17.20
2017-09-04T09:00:11.384Z,17.30
2017-09-04T09:02:38.938Z,17.30
2017-09-04T09:05:06.493Z,17.40
2017-09-04T09:07:35.014Z,17.50
2017-09-04T09:10:02.554Z,17.50
2017-09-04T09:12:30.098Z,17.60
2017-09-04T09:14:57.677Z,17.70
2017-09-04T09:17:25.429Z,17.80
2017-09-04T09:19:52.984Z,17.80
2017-09-04T09:22:21.627Z,18.00
2017-09-04T09:24:49.256Z,18.00
2017-09-04T09:27:16.801Z,18.00
2017-09-04T09:29:44.766Z,18.10
2017-09-04T09:32:12.315Z,18.20
2017-09-04T09:34:41.502Z,18.20
2017-09-04T09:37:09.615Z,18.30
2017-09-04T09:39:37.153Z,18.40
2017-09-04T09:42:04.698Z,18.40
2017-09-04T09:44:32.411Z,18.50
2017-09-04T09:46:59.962Z,18.60
2017-09-04T09:49:27.518Z,18.60
2017-09-04T09:51:55.146Z,18.70
2017-09-04T09:54:22.745Z,18.80
2017-09-04T09:56:50.285Z,18.90
2017-09-04T09:59:17.955Z,18.90
2017-09-04T10:01:45.505Z,19.00
2017-09-04T10:04:13.696Z,19.10
2017-09-04T10:06:41.249Z,19.20
2017-09-04T10:09:08.841Z,19.30
2017-09-04T10:11:36.393Z,19.30
2017-09-04T10:14:05.246Z,19.30
2017-09-04T10:16:32.802Z,19.30
2017-09-04T10:19:00.393Z,19.40
2017-09-04T10:21:27.942Z,19.50
2017-09-04T10:23:55.535Z,19.60
2017-09-04T10:26:23.436Z,19.70
2017-09-04T10:31:27.857Z,20.00
2017-09-04T10:33:55.422Z,20.10
2017-09-04T10:36:23.457Z,20.20
2017-09-04T10:38:51.018Z,20.30
2017-09-04T10:41:18.572Z,20.40
2017-09-04T10:43:46.509Z,20.50
2017-09-04T10:46:14.058Z,20.50
2017-09-04T10:48:41.612Z,20.40
2017-09-04T10:51:09.189Z,20.30
2017-09-04T10:53:36.838Z,20.30
2017-09-04T10:56:04.436Z,20.40
2017-09-04T10:58:31.989Z,20.50
2017-09-04T11:00:59.642Z,20.60
2017-09-04T11:03:27.210Z,20.70
2017-09-04T11:05:54.796Z,20.80
2017-09-04T11:08:26.248Z,21.00
2017-09-04T11:10:53.807Z,21.10
2017-09-04T11:13:21.413Z,21.10
2017-09-04T11:15:48.969Z,21.10
2017-09-04T11:18:16.682Z,21.00
2017-09-04T11:20:46.092Z,21.10
2017-09-04T11:23:13.942Z,21.10
2017-09-04T11:25:41.502Z,21.00
2017-09-04T11:28:09.121Z,21.00
2017-09-04T11:30:36.677Z,21.20
2017-09-04T11:33:04.497Z,21.20
2017-09-04T11:35:32.054Z,21.20
2017-09-04T11:38:00.264Z,21.30
2017-09-04T11:40:27.840Z,21.50
2017-09-04T11:42:55.381Z,21.50
2017-09-04T11:45:22.967Z,21.60
2017-09-04T11:47:50.569Z,21.70
2017-09-04T11:50:18.105Z,21.80
2017-09-04T11:52:45.692Z,22.00
2017-09-04T11:55:13.235Z,22.00
2017-09-04T11:57:40.828Z,22.10
2017-09-04T12:00:08.368Z,22.20
2017-09-04T12:02:36.090Z,22.30
2017-09-04T12:05:03.670Z,22.30
2017-09-04T12:07:31.222Z,22.40
2017-09-04T12:09:58.804Z,22.40
2017-09-04T12:12:26.353Z,22.20
2017-09-04T12:14:53.903Z,22.20
2017-09-04T12:17:22.253Z,22.20
2017-09-04T12:19:49.811Z,22.30
2017-09-04T12:22:17.401Z,22.40
2017-09-04T12:24:44.989Z,22.50
2017-09-04T12:27:12.534Z,22.60
2017-09-04T12:29:40.114Z,22.60
2017-09-04T12:32:07.665Z,22.60
2017-09-04T12:34:35.273Z,22.60
2017-09-04T12:37:02.826Z,22.70
2017-09-04T12:39:30.410Z,22.70
2017-09-04T12:41:57.956Z,22.70
2017-09-04T12:44:25.546Z,22.80
2017-09-04T12:46:53.089Z,22.90
2017-09-04T12:49:20.625Z,23.00
2017-09-04T12:51:48.599Z,22.90
2017-09-04T12:54:16.162Z,22.80
2017-09-04T12:56:43.803Z,22.70
2017-09-04T12:59:16.293Z,22.60
2017-09-04T13:01:43.835Z,22.50
2017-09-04T13:04:11.387Z,22.40
2017-09-04T13:06:39.581Z,22.40
2017-09-04T13:09:07.129Z,22.40
2017-09-04T13:11:40.398Z,22.40
2017-09-04T13:14:22.934Z,22.30
2017-09-04T13:16:56.298Z,22.40
2017-09-04T13:19:29.482Z,22.40
2017-09-04T13:22:02.693Z,22.40
2017-09-04T13:24:45.897Z,22.40
2017-09-04T13:27:19.228Z,22.50
2017-09-04T13:29:52.739Z,22.50
2017-09-04T13:32:26.049Z,22.60
2017-09-04T13:34:59.371Z,22.60
2017-09-04T13:37:32.562Z,22.60
2017-09-04T13:40:05.738Z,22.60
2017-09-04T13:42:38.979Z,22.50
2017-09-04T13:45:28.685Z,22.50
2017-09-04T13:48:01.920Z,22.50
2017-09-04T13:50:35.109Z,22.50
2017-09-04T13:53:19.429Z,22.40
2017-09-04T13:55:52.750Z,22.40
2017-09-04T13:58:37.162Z,22.40
2017-09-04T14:01:10.381Z,22.50
2017-09-04T14:03:43.990Z,22.60
2017-09-04T14:06:30.250Z,22.70
2017-09-04T14:09:14.550Z,22.80
2017-09-04T14:12:01.941Z,22.90
2017-09-04T14:14:49.240Z,22.80
2017-09-04T14:17:22.766Z,22.90
2017-09-04T14:19:50.316Z,23.00
2017-09-04T14:22:18.042Z,23.00
2017-09-04T14:24:45.602Z,23.00
2017-09-04T14:27:17.123Z,23.10
2017-09-04T14:29:44.672Z,23.10
2017-09-04T14:32:12.252Z,23.10
2017-09-04T14:34:39.840Z,23.10
2017-09-04T14:37:07.399Z,23.10
2017-09-04T14:39:35.092Z,23.00
2017-09-04T14:42:02.654Z,22.80
2017-09-04T14:44:30.522Z,22.70
2017-09-04T14:47:12.959Z,22.60
2017-09-04T14:49:44.155Z,22.50
2017-09-04T14:52:11.703Z,22.50
2017-09-04T14:54:39.357Z,22.50
2017-09-04T14:57:06.913Z,22.50
2017-09-04T14:59:34.509Z,22.50
2017-09-04T15:02:02.054Z,22.40
2017-09-04T15:04:29.721Z,22.50
2017-09-04T15:06:57.308Z,22.40
2017-09-04T15:09:24.846Z,22.40
2017-09-04T15:11:52.433Z,22.30
2017-09-04T15:14:19.982Z,22.20
2017-09-04T15:16:47.840Z,22.20
2017-09-04T15:19:15.537Z,22.20
2017-09-04T15:21:43.089Z,22.20
2017-09-04T15:24:10.946Z,22.20
2017-09-04T15:26:38.749Z,22.20
2017-09-04T15:29:06.298Z,22.10
2017-09-04T15:31:34.157Z,22.10
2017-09-04T15:34:01.712Z,22.00
2017-09-04T15:36:29.269Z,22.00
2017-09-04T15:38:57.257Z,22.00
2017-09-04T15:41:24.814Z,22.00
2017-09-04T15:43:52.355Z,21.90
2017-09-04T15:46:20.239Z,21.90
2017-09-04T15:48:47.783Z,21.90
2017-09-04T15:51:15.336Z,21.80
2017-09-04T15:53:42.921Z,21.80
2017-09-04T15:56:11.931Z,21.70
2017-09-04T15:58:39.493Z,21.70
2017-09-04T16:01:07.051Z,21.60
2017-09-04T16:03:34.650Z,21.50
2017-09-04T16:06:17.073Z,21.50
2017-09-04T16:08:44.815Z,21.40
2017-09-04T16:11:12.441Z,21.30
2017-09-04T16:13:51.707Z,21.20
2017-09-04T16:16:34.039Z,21.20
2017-09-04T16:19:18.639Z,21.10
2017-09-04T16:22:01.061Z,21.00
2017-09-04T16:24:30.477Z,21.00
2017-09-04T16:27:02.213Z,20.90
2017-09-04T16:29:32.384Z,20.90
2017-09-04T16:32:01.170Z,20.90
2017-09-04T16:34:37.231Z,20.80
2017-09-04T16:37:06.298Z,20.80
2017-09-04T16:39:39.521Z,20.80
2017-09-04T16:42:08.973Z,20.70
2017-09-04T16:44:36.517Z,20.70
2017-09-04T16:47:04.119Z,20.70
2017-09-04T16:49:47.484Z,20.60
2017-09-04T16:52:26.127Z,20.60
2017-09-04T16:54:54.470Z,20.50
2017-09-04T16:57:26.928Z,20.50
2017-09-04T16:59:54.498Z,20.40
2017-09-04T17:02:22.141Z,20.30
2017-09-04T17:04:49.690Z,20.20
2017-09-04T17:07:17.546Z,20.20
2017-09-04T17:09:52.804Z,20.10
2017-09-04T17:12:37.243Z,20.10
2017-09-04T17:15:04.802Z,20.10
2017-09-04T17:17:32.555Z,20.00
2017-09-04T17:20:18.527Z,20.00
2017-09-04T17:22:47.571Z,19.90
2017-09-04T17:25:15.118Z,19.90
2017-09-04T17:27:43.185Z,19.80
2017-09-04T17:30:10.746Z,19.70
2017-09-04T17:32:38.298Z,19.70
2017-09-04T17:35:05.890Z,19.70
2017-09-04T17:37:33.509Z,19.60
2017-09-04T17:40:01.120Z,19.50
2017-09-04T17:42:28.875Z,19.50
2017-09-04T17:44:56.458Z,19.40
2017-09-04T17:47:24.055Z,19.40
2017-09-04T17:49:51.646Z,19.30
2017-09-04T17:52:20.441Z,19.20
2017-09-04T17:54:48.006Z,19.20
2017-09-04T17:57:15.749Z,19.20
2017-09-04T17:59:43.321Z,19.10
2017-09-04T18:02:10.917Z,19.00
2017-09-04T18:04:38.467Z,19.00
2017-09-04T18:07:06.129Z,18.90
2017-09-04T18:09:33.741Z,18.90
2017-09-04T18:12:01.301Z,18.80
2017-09-04T18:14:28.973Z,18.70
2017-09-04T18:16:56.535Z,18.70
2017-09-04T18:19:25.717Z,18.60
2017-09-04T18:21:53.282Z,18.60
2017-09-04T18:24:21.331Z,18.50
2017-09-04T18:26:48.885Z,18.40
2017-09-04T18:29:16.443Z,18.40
2017-09-04T18:31:44.293Z,18.30
2017-09-04T18:34:11.844Z,18.30
2017-09-04T18:36:39.378Z,18.20
2017-09-04T18:39:06.961Z,18.20
2017-09-04T18:41:34.511Z,18.10
2017-09-04T18:44:02.110Z,18.10
2017-09-04T18:46:33.563Z,18.10
2017-09-04T18:49:01.105Z,18.00
2017-09-04T18:51:28.650Z,17.90
2017-09-04T18:53:56.296Z,17.90
2017-09-04T18:56:23.844Z,17.90
2017-09-04T18:58:51.433Z,17.90
2017-09-04T19:01:18.982Z,17.80
2017-09-04T19:03:46.733Z,17.80
2017-09-04T19:06:14.277Z,17.80
2017-09-04T19:08:41.861Z,17.80
2017-09-04T19:11:09.405Z,17.70
2017-09-04T19:13:36.993Z,17.70
2017-09-04T19:16:09.744Z,17.70
2017-09-04T19:18:37.432Z,17.60
2017-09-04T19:21:04.974Z,17.60
2017-09-04T19:23:32.569Z,17.50
2017-09-04T19:26:00.153Z,17.50
2017-09-04T19:28:27.692Z,17.50
2017-09-04T19:30:55.326Z,17.50
2017-09-04T19:33:22.877Z,17.40
2017-09-04T19:35:50.813Z,17.40
2017-09-04T19:38:18.366Z,17.40
2017-09-04T19:40:45.917Z,17.40
2017-09-04T19:43:15.048Z,17.30
2017-09-04T19:45:42.585Z,17.30
2017-09-04T19:48:10.126Z,17.30
2017-09-04T19:50:37.733Z,17.30
2017-09-04T19:53:05.326Z,17.30
2017-09-04T19:55:32.882Z,17.20
2017-09-04T19:58:00.469Z,17.20
2017-09-04T20:00:28.011Z,17.20
2017-09-04T20:02:56.041Z,17.20
2017-09-04T20:05:23.850Z,17.20
2017-09-04T20:07:52.186Z,17.10
2017-09-04T20:10:20.514Z,17.10
2017-09-04T20:12:48.076Z,17.10
2017-09-04T20:15:15.645Z,17.10
2017-09-04T20:17:43.569Z,17.00
2017-09-04T20:20:11.154Z,17.00
2017-09-04T20:22:38.693Z,17.00
2017-09-04T20:25:06.642Z,17.00
2017-09-04T20:27:34.185Z,17.00
2017-09-04T20:30:01.761Z,16.90
2017-09-04T20:32:29.733Z,17.00
2017-09-04T20:34:57.276Z,17.00
2017-09-04T20:37:24.854Z,16.90
2017-09-04T20:39:52.433Z,16.90
2017-09-04T20:42:20.011Z,16.90
2017-09-04T20:44:48.387Z,16.90
2017-09-04T20:47:15.974Z,16.80
2017-09-04T20:49:43.983Z,16.90
2017-09-04T20:52:11.517Z,16.80
2017-09-04T20:54:39.057Z,16.90
2017-09-04T20:57:06.674Z,16.80
2017-09-04T20:59:34.253Z,16.80
2017-09-04T21:02:01.792Z,16.80
2017-09-04T21:04:29.380Z,16.80
2017-09-04T21:06:56.942Z,16.80
2017-09-04T21:09:24.798Z,16.80
2017-09-04T21:11:52.341Z,16.80
2017-09-04T21:14:19.890Z,16.80
2017-09-04T21:16:47.799Z,16.80
2017-09-04T21:19:15.730Z,16.80
2017-09-04T21:21:43.274Z,16.80
2017-09-04T21:24:10.841Z,16.80
2017-09-04T21:26:38.433Z,16.80
2017-09-04T21:29:06.026Z,16.80
2017-09-04T21:31:33.584Z,16.80
2017-09-04T21:34:01.230Z,16.80
2017-09-04T21:36:28.773Z,16.80
2017-09-04T21:38:56.724Z,16.70
2017-09-04T21:41:24.277Z,16.70
2017-09-04T21:43:51.818Z,16.70
2017-09-04T21:46:19.716Z,16.70
2017-09-04T21:48:47.683Z,16.70
2017-09-04T21:51:15.233Z,16.70
2017-09-04T21:53:42.781Z,16.80
2017-09-04T21:56:11.897Z,16.70
2017-09-04T21:58:39.451Z,16.70
2017-09-04T22:01:07.012Z,16.70
2017-09-04T22:03:34.741Z,16.70
2017-09-04T22:06:02.281Z,16.70
2017-09-04T22:08:30.631Z,16.70
2017-09-04T22:10:58.326Z,16.70
2017-09-04T22:13:25.911Z,16.70
2017-09-04T22:15:53.454Z,16.70
2017-09-04T22:18:21.329Z,16.70
2017-09-04T22:20:48.869Z,16.70
2017-09-04T22:23:16.449Z,16.70
2017-09-04T22:25:43.992Z,16.70
2017-09-04T22:28:11.574Z,16.70
2017-09-04T22:30:39.113Z,16.70
2017-09-04T22:33:07.038Z,16.70
2017-09-04T22:35:34.586Z,16.60
2017-09-04T22:38:02.178Z,16.60
2017-09-04T22:40:29.722Z,16.60
2017-09-04T22:42:57.309Z,16.60
2017-09-04T22:45:26.168Z,16.60
2017-09-04T22:47:53.710Z,16.60
2017-09-04T22:50:21.545Z,16.60
2017-09-04T22:52:49.089Z,16.60
2017-09-04T22:55:16.634Z,16.60
2017-09-04T22:57:44.210Z,16.60
2017-09-04T23:00:11.756Z,16.50
2017-09-04T23:02:39.905Z,16.60
2017-09-04T23:05:07.452Z,16.50
2017-09-04T23:07:34.988Z,16.50
2017-09-04T23:10:02.568Z,16.60
2017-09-04T23:12:30.145Z,16.50
2017-09-04T23:14:57.691Z,16.50
2017-09-04T23:17:25.490Z,16.50
2017-09-04T23:19:53.025Z,16.50
2017-09-04T23:22:20.560Z,16.50
2017-09-04T23:24:48.141Z,16.40
2017-09-04T23:27:15.679Z,16.40
2017-09-04T23:29:43.269Z,16.40
2017-09-04T23:32:10.807Z,16.40
2017-09-04T23:34:38.399Z,16.40
2017-09-04T23:37:05.938Z,16.40
2017-09-04T23:39:33.929Z,16.40
2017-09-04T23:42:01.463Z,16.40
2017-09-04T23:44:29.007Z,16.40
2017-09-04T23:46:56.602Z,16.40
2017-09-04T23:49:24.348Z,16.40
2017-09-04T23:51:51.885Z,16.30
2017-09-04T23:54:19.458Z,16.40
2017-09-04T23:56:46.996Z,16.40
2017-09-04T23:59:14.584Z,16.40
